sensor_id;sensor_type;location;lat;lon;timestamp;temperature;humidity
2663;DHT22;49701;48.072;7.800;2023-09-07T00:01:53;18.30;99.90
2663;DHT22;49701;48.072;7.800;2023-09-07T00:04:19;18.40;99.90
2663;DHT22;49701;48.072;7.800;2023-09-07T00:06:45;18.40;99.90
2663;DHT22;49701;48.072;7.800;2023-09-07T00:09:10;18.40;99.90
2663;DHT22;49701;48.072;7.800;2023-09-07T00:11:37;18.40;99.90
2663;DHT22;49701;48.072;7.800;2023-09-07T00:14:03;18.30;99.90
2663;DHT22;49701;48.072;7.800;2023-09-07T00:16:32;18.40;99.90
2663;DHT22;49701;48.072;7.800;2023-09-07T00:19:01;18.30;99.90
2663;DHT22;49701;48.072;7.800;2023-09-07T00:21:28;18.30;99.90
2663;DHT22;49701;48.072;7.800;2023-09-07T00:23:53;18.30;99.90
2663;DHT22;49701;48.072;7.800;2023-09-07T00:26:20;18.30;99.90
2663;DHT22;49701;48.072;7.800;2023-09-07T00:28:46;18.30;99.90
2663;DHT22;49701;48.072;7.800;2023-09-07T00:31:12;18.30;99.90
2663;DHT22;49701;48.072;7.800;2023-09-07T00:33:38;18.20;99.90
2663;DHT22;49701;48.072;7.800;2023-09-07T00:36:03;18.30;99.90
2663;DHT22;49701;48.072;7.800;2023-09-07T00:38:29;18.20;99.90
2663;DHT22;49701;48.072;7.800;2023-09-07T00:40:55;18.10;99.90
2663;DHT22;49701;48.072;7.800;2023-09-07T00:43:20;18.10;99.90
2663;DHT22;49701;48.072;7.800;2023-09-07T00:45:46;18.10;99.90
2663;DHT22;49701;48.072;7.800;2023-09-07T00:48:14;18.00;99.90
2663;DHT22;49701;48.072;7.800;2023-09-07T00:50:40;18.00;99.90
2663;DHT22;49701;48.072;7.800;2023-09-07T00:53:06;18.00;99.90
2663;DHT22;49701;48.072;7.800;2023-09-07T00:55:32;18.00;99.90
2663;DHT22;49701;48.072;7.800;2023-09-07T00:58:03;18.00;99.90
2663;DHT22;49701;48.072;7.800;2023-09-07T01:00:29;17.90;99.90
2663;DHT22;49701;48.072;7.800;2023-09-07T01:02:55;17.90;99.90
2663;DHT22;49701;48.072;7.800;2023-09-07T01:05:21;17.70;99.90
2663;DHT22;49701;48.072;7.800;2023-09-07T01:07:54;17.60;99.90
2663;DHT22;49701;48.072;7.800;2023-09-07T01:10:23;17.60;99.90
2663;DHT22;49701;48.072;7.800;2023-09-07T01:12:48;17.60;99.90
2663;DHT22;49701;48.072;7.800;2023-09-07T01:15:14;17.60;99.90
2663;DHT22;49701;48.072;7.800;2023-09-07T01:17:39;17.50;99.90
2663;DHT22;49701;48.072;7.800;2023-09-07T01:20:06;17.50;99.90
2663;DHT22;49701;48.072;7.800;2023-09-07T01:22:35;17.50;99.90
2663;DHT22;49701;48.072;7.800;2023-09-07T01:25:00;17.50;99.90
2663;DHT22;49701;48.072;7.800;2023-09-07T01:27:28;17.50;99.90
2663;DHT22;49701;48.072;7.800;2023-09-07T01:29:53;17.40;99.90
2663;DHT22;49701;48.072;7.800;2023-09-07T01:32:19;17.40;99.90
2663;DHT22;49701;48.072;7.800;2023-09-07T01:34:44;17.30;99.90
2663;DHT22;49701;48.072;7.800;2023-09-07T01:37:10;17.20;99.90
2663;DHT22;49701;48.072;7.800;2023-09-07T01:39:36;17.10;99.90
2663;DHT22;49701;48.072;7.800;2023-09-07T01:42:02;17.00;99.90
2663;DHT22;49701;48.072;7.800;2023-09-07T01:44:28;17.00;99.90
2663;DHT22;49701;48.072;7.800;2023-09-07T01:46:55;17.00;99.90
2663;DHT22;49701;48.072;7.800;2023-09-07T01:49:21;16.90;99.90
2663;DHT22;49701;48.072;7.800;2023-09-07T01:51:46;16.90;99.90
2663;DHT22;49701;48.072;7.800;2023-09-07T01:54:12;16.90;99.90
2663;DHT22;49701;48.072;7.800;2023-09-07T01:56:38;17.00;99.90
2663;DHT22;49701;48.072;7.800;2023-09-07T01:59:06;17.00;99.90
2663;DHT22;49701;48.072;7.800;2023-09-07T02:01:32;17.00;99.90
2663;DHT22;49701;48.072;7.800;2023-09-07T02:04:01;17.00;99.90
2663;DHT22;49701;48.072;7.800;2023-09-07T02:06:27;16.90;99.90
2663;DHT22;49701;48.072;7.800;2023-09-07T02:08:53;16.90;99.90
2663;DHT22;49701;48.072;7.800;2023-09-07T02:11:19;16.90;99.90
2663;DHT22;49701;48.072;7.800;2023-09-07T02:13:46;16.90;99.90
2663;DHT22;49701;48.072;7.800;2023-09-07T02:16:11;16.90;99.90
2663;DHT22;49701;48.072;7.800;2023-09-07T02:18:37;16.90;99.90
2663;DHT22;49701;48.072;7.800;2023-09-07T02:21:05;16.90;99.90
2663;DHT22;49701;48.072;7.800;2023-09-07T02:23:31;17.00;99.90
2663;DHT22;49701;48.072;7.800;2023-09-07T02:25:57;16.90;99.90
2663;DHT22;49701;48.072;7.800;2023-09-07T02:28:23;17.00;99.90
2663;DHT22;49701;48.072;7.800;2023-09-07T02:30:49;16.90;99.90
2663;DHT22;49701;48.072;7.800;2023-09-07T02:33:15;17.00;99.90
2663;DHT22;49701;48.072;7.800;2023-09-07T02:35:40;17.10;99.90
2663;DHT22;49701;48.072;7.800;2023-09-07T02:38:06;17.10;99.90
2663;DHT22;49701;48.072;7.800;2023-09-07T02:40:32;17.10;99.90
2663;DHT22;49701;48.072;7.800;2023-09-07T02:42:57;17.10;99.90
2663;DHT22;49701;48.072;7.800;2023-09-07T02:45:23;17.00;99.90
2663;DHT22;49701;48.072;7.800;2023-09-07T02:47:48;17.00;99.90
2663;DHT22;49701;48.072;7.800;2023-09-07T02:50:16;16.90;99.90
2663;DHT22;49701;48.072;7.800;2023-09-07T02:52:43;16.90;99.90
2663;DHT22;49701;48.072;7.800;2023-09-07T02:55:09;16.80;99.90
2663;DHT22;49701;48.072;7.800;2023-09-07T02:57:35;16.90;99.90
2663;DHT22;49701;48.072;7.800;2023-09-07T03:00:01;16.80;99.90
2663;DHT22;49701;48.072;7.800;2023-09-07T03:02:35;16.80;99.90
2663;DHT22;49701;48.072;7.800;2023-09-07T03:05:01;16.70;99.90
2663;DHT22;49701;48.072;7.800;2023-09-07T03:07:29;16.60;99.90
2663;DHT22;49701;48.072;7.800;2023-09-07T03:09:55;16.50;99.90
2663;DHT22;49701;48.072;7.800;2023-09-07T03:12:21;16.40;99.90
2663;DHT22;49701;48.072;7.800;2023-09-07T03:14:47;16.30;99.90
2663;DHT22;49701;48.072;7.800;2023-09-07T03:17:14;16.20;99.90
2663;DHT22;49701;48.072;7.800;2023-09-07T03:19:42;16.10;99.90
2663;DHT22;49701;48.072;7.800;2023-09-07T03:22:07;16.10;99.90
2663;DHT22;49701;48.072;7.800;2023-09-07T03:24:34;16.00;99.90
2663;DHT22;49701;48.072;7.800;2023-09-07T03:27:00;16.00;99.90
2663;DHT22;49701;48.072;7.800;2023-09-07T03:29:25;16.00;99.90
2663;DHT22;49701;48.072;7.800;2023-09-07T03:31:51;16.00;99.90
2663;DHT22;49701;48.072;7.800;2023-09-07T03:34:17;16.00;99.90
2663;DHT22;49701;48.072;7.800;2023-09-07T03:36:42;16.00;99.90
2663;DHT22;49701;48.072;7.800;2023-09-07T03:39:08;16.10;99.90
2663;DHT22;49701;48.072;7.800;2023-09-07T03:41:34;16.00;99.90
2663;DHT22;49701;48.072;7.800;2023-09-07T03:44:00;16.00;99.90
2663;DHT22;49701;48.072;7.800;2023-09-07T03:46:26;16.00;99.90
2663;DHT22;49701;48.072;7.800;2023-09-07T03:48:52;16.10;99.90
2663;DHT22;49701;48.072;7.800;2023-09-07T03:51:18;16.10;99.90
2663;DHT22;49701;48.072;7.800;2023-09-07T03:53:43;16.10;99.90
2663;DHT22;49701;48.072;7.800;2023-09-07T03:56:09;16.10;99.90
2663;DHT22;49701;48.072;7.800;2023-09-07T03:58:34;16.00;99.90
2663;DHT22;49701;48.072;7.800;2023-09-07T04:01:00;15.90;99.90
2663;DHT22;49701;48.072;7.800;2023-09-07T04:03:27;15.90;99.90
2663;DHT22;49701;48.072;7.800;2023-09-07T04:05:52;15.90;99.90
2663;DHT22;49701;48.072;7.800;2023-09-07T04:08:18;15.80;99.90
2663;DHT22;49701;48.072;7.800;2023-09-07T04:10:44;15.80;99.90
2663;DHT22;49701;48.072;7.800;2023-09-07T04:13:09;15.80;99.90
2663;DHT22;49701;48.072;7.800;2023-09-07T04:15:43;15.80;99.90
2663;DHT22;49701;48.072;7.800;2023-09-07T04:18:13;15.80;99.90
2663;DHT22;49701;48.072;7.800;2023-09-07T04:20:40;15.90;99.90
2663;DHT22;49701;48.072;7.800;2023-09-07T04:23:06;15.90;99.90
2663;DHT22;49701;48.072;7.800;2023-09-07T04:25:32;15.90;99.90
2663;DHT22;49701;48.072;7.800;2023-09-07T04:28:00;15.80;99.90
2663;DHT22;49701;48.072;7.800;2023-09-07T04:30:26;15.80;99.90
2663;DHT22;49701;48.072;7.800;2023-09-07T04:32:52;15.70;99.90
2663;DHT22;49701;48.072;7.800;2023-09-07T04:35:17;15.60;99.90
2663;DHT22;49701;48.072;7.800;2023-09-07T04:37:43;15.60;99.90
2663;DHT22;49701;48.072;7.800;2023-09-07T04:40:10;15.50;99.90
2663;DHT22;49701;48.072;7.800;2023-09-07T04:42:36;15.60;99.90
2663;DHT22;49701;48.072;7.800;2023-09-07T04:45:01;15.60;99.90
2663;DHT22;49701;48.072;7.800;2023-09-07T04:47:28;15.60;99.90
2663;DHT22;49701;48.072;7.800;2023-09-07T04:49:54;15.60;99.90
2663;DHT22;49701;48.072;7.800;2023-09-07T04:52:21;15.60;99.90
2663;DHT22;49701;48.072;7.800;2023-09-07T04:54:47;15.60;99.90
2663;DHT22;49701;48.072;7.800;2023-09-07T04:57:15;15.60;99.90
2663;DHT22;49701;48.072;7.800;2023-09-07T04:59:41;15.60;99.90
2663;DHT22;49701;48.072;7.800;2023-09-07T05:02:07;15.60;99.90
2663;DHT22;49701;48.072;7.800;2023-09-07T05:04:32;15.60;99.90
2663;DHT22;49701;48.072;7.800;2023-09-07T05:06:58;15.50;99.90
2663;DHT22;49701;48.072;7.800;2023-09-07T05:09:24;15.50;99.90
2663;DHT22;49701;48.072;7.800;2023-09-07T05:11:51;15.50;99.90
2663;DHT22;49701;48.072;7.800;2023-09-07T05:14:17;15.50;99.90
2663;DHT22;49701;48.072;7.800;2023-09-07T05:16:43;15.50;99.90
2663;DHT22;49701;48.072;7.800;2023-09-07T05:19:09;15.40;99.90
2663;DHT22;49701;48.072;7.800;2023-09-07T05:21:35;15.30;99.90
2663;DHT22;49701;48.072;7.800;2023-09-07T05:24:01;15.30;99.90
2663;DHT22;49701;48.072;7.800;2023-09-07T05:26:26;15.40;99.90
2663;DHT22;49701;48.072;7.800;2023-09-07T05:28:54;15.40;99.90
2663;DHT22;49701;48.072;7.800;2023-09-07T05:31:19;15.40;99.90
2663;DHT22;49701;48.072;7.800;2023-09-07T05:33:45;15.40;99.90
2663;DHT22;49701;48.072;7.800;2023-09-07T05:36:10;15.40;99.90
2663;DHT22;49701;48.072;7.800;2023-09-07T05:38:36;15.50;99.90
2663;DHT22;49701;48.072;7.800;2023-09-07T05:41:03;15.60;99.90
2663;DHT22;49701;48.072;7.800;2023-09-07T05:43:29;15.70;99.90
2663;DHT22;49701;48.072;7.800;2023-09-07T05:45:55;15.80;99.90
2663;DHT22;49701;48.072;7.800;2023-09-07T05:48:20;15.90;99.90
2663;DHT22;49701;48.072;7.800;2023-09-07T05:50:47;16.10;99.90
2663;DHT22;49701;48.072;7.800;2023-09-07T05:53:13;16.20;99.90
2663;DHT22;49701;48.072;7.800;2023-09-07T05:55:38;16.40;99.90
2663;DHT22;49701;48.072;7.800;2023-09-07T05:58:05;16.50;99.90
2663;DHT22;49701;48.072;7.800;2023-09-07T06:00:32;16.60;99.90
2663;DHT22;49701;48.072;7.800;2023-09-07T06:02:57;16.80;99.90
2663;DHT22;49701;48.072;7.800;2023-09-07T06:05:23;17.00;99.90
2663;DHT22;49701;48.072;7.800;2023-09-07T06:07:49;17.10;99.90
2663;DHT22;49701;48.072;7.800;2023-09-07T06:10:16;17.30;99.90
2663;DHT22;49701;48.072;7.800;2023-09-07T06:12:43;17.40;99.90
2663;DHT22;49701;48.072;7.800;2023-09-07T06:15:09;17.60;99.90
2663;DHT22;49701;48.072;7.800;2023-09-07T06:17:35;17.80;99.90
2663;DHT22;49701;48.072;7.800;2023-09-07T06:20:01;18.00;99.90
2663;DHT22;49701;48.072;7.800;2023-09-07T06:22:27;18.10;99.90
2663;DHT22;49701;48.072;7.800;2023-09-07T06:24:53;18.30;99.90
2663;DHT22;49701;48.072;7.800;2023-09-07T06:27:19;18.40;99.90
2663;DHT22;49701;48.072;7.800;2023-09-07T06:29:45;18.60;99.90
2663;DHT22;49701;48.072;7.800;2023-09-07T06:32:12;18.70;99.90
2663;DHT22;49701;48.072;7.800;2023-09-07T06:34:38;18.90;99.90
2663;DHT22;49701;48.072;7.800;2023-09-07T06:37:04;19.10;99.90
2663;DHT22;49701;48.072;7.800;2023-09-07T06:39:31;19.30;99.90
2663;DHT22;49701;48.072;7.800;2023-09-07T06:41:56;19.50;99.90
2663;DHT22;49701;48.072;7.800;2023-09-07T06:44:26;19.70;99.90
2663;DHT22;49701;48.072;7.800;2023-09-07T06:46:52;20.00;99.90
2663;DHT22;49701;48.072;7.800;2023-09-07T06:49:18;20.20;99.90
2663;DHT22;49701;48.072;7.800;2023-09-07T06:51:44;20.50;99.90
2663;DHT22;49701;48.072;7.800;2023-09-07T06:54:10;20.60;99.90
2663;DHT22;49701;48.072;7.800;2023-09-07T06:56:36;20.80;99.90
2663;DHT22;49701;48.072;7.800;2023-09-07T06:59:02;21.00;99.90
2663;DHT22;49701;48.072;7.800;2023-09-07T07:01:27;21.30;99.90
2663;DHT22;49701;48.072;7.800;2023-09-07T07:03:53;21.50;99.90
2663;DHT22;49701;48.072;7.800;2023-09-07T07:06:19;21.80;99.90
2663;DHT22;49701;48.072;7.800;2023-09-07T07:08:46;22.10;99.90
2663;DHT22;49701;48.072;7.800;2023-09-07T07:11:11;22.20;99.90
2663;DHT22;49701;48.072;7.800;2023-09-07T07:13:37;22.40;99.90
2663;DHT22;49701;48.072;7.800;2023-09-07T07:16:02;22.50;99.90
2663;DHT22;49701;48.072;7.800;2023-09-07T07:18:30;22.70;99.90
2663;DHT22;49701;48.072;7.800;2023-09-07T07:20:57;22.90;99.90
2663;DHT22;49701;48.072;7.800;2023-09-07T07:23:23;23.10;99.90
2663;DHT22;49701;48.072;7.800;2023-09-07T07:25:48;23.30;99.90
2663;DHT22;49701;48.072;7.800;2023-09-07T07:28:14;23.30;99.90
2663;DHT22;49701;48.072;7.800;2023-09-07T07:30:40;23.40;99.90
2663;DHT22;49701;48.072;7.800;2023-09-07T07:33:06;23.60;99.90
2663;DHT22;49701;48.072;7.800;2023-09-07T07:35:35;23.90;99.90
2663;DHT22;49701;48.072;7.800;2023-09-07T07:38:02;24.00;99.90
2663;DHT22;49701;48.072;7.800;2023-09-07T07:40:29;24.00;99.90
2663;DHT22;49701;48.072;7.800;2023-09-07T07:42:55;24.00;99.90
2663;DHT22;49701;48.072;7.800;2023-09-07T07:45:21;24.10;99.90
2663;DHT22;49701;48.072;7.800;2023-09-07T07:47:48;24.30;99.90
2663;DHT22;49701;48.072;7.800;2023-09-07T07:50:14;24.50;99.90
2663;DHT22;49701;48.072;7.800;2023-09-07T07:52:41;24.80;99.90
2663;DHT22;49701;48.072;7.800;2023-09-07T07:55:07;25.00;99.90
2663;DHT22;49701;48.072;7.800;2023-09-07T07:57:32;25.00;99.90
2663;DHT22;49701;48.072;7.800;2023-09-07T07:59:58;24.90;99.90
2663;DHT22;49701;48.072;7.800;2023-09-07T08:02:25;24.90;99.90
2663;DHT22;49701;48.072;7.800;2023-09-07T08:04:51;24.90;99.90
2663;DHT22;49701;48.072;7.800;2023-09-07T08:07:17;25.20;99.90
2663;DHT22;49701;48.072;7.800;2023-09-07T08:09:43;25.40;99.90
2663;DHT22;49701;48.072;7.800;2023-09-07T08:12:09;25.80;99.90
2663;DHT22;49701;48.072;7.800;2023-09-07T08:14:35;26.10;99.90
2663;DHT22;49701;48.072;7.800;2023-09-07T08:17:02;26.20;99.90
2663;DHT22;49701;48.072;7.800;2023-09-07T08:19:27;26.60;99.90
2663;DHT22;49701;48.072;7.800;2023-09-07T08:21:55;26.80;99.90
2663;DHT22;49701;48.072;7.800;2023-09-07T08:24:20;26.90;99.90
2663;DHT22;49701;48.072;7.800;2023-09-07T08:26:46;27.20;99.90
2663;DHT22;49701;48.072;7.800;2023-09-07T08:29:16;27.60;99.90
2663;DHT22;49701;48.072;7.800;2023-09-07T08:31:42;27.90;99.90
2663;DHT22;49701;48.072;7.800;2023-09-07T08:34:10;27.80;99.90
2663;DHT22;49701;48.072;7.800;2023-09-07T08:36:36;27.70;99.90
2663;DHT22;49701;48.072;7.800;2023-09-07T08:39:03;27.70;99.90
2663;DHT22;49701;48.072;7.800;2023-09-07T08:41:31;27.90;99.90
2663;DHT22;49701;48.072;7.800;2023-09-07T08:43:57;28.20;99.90
2663;DHT22;49701;48.072;7.800;2023-09-07T08:46:23;28.50;99.90
2663;DHT22;49701;48.072;7.800;2023-09-07T08:48:49;28.90;99.90
2663;DHT22;49701;48.072;7.800;2023-09-07T08:51:15;29.20;99.90
2663;DHT22;49701;48.072;7.800;2023-09-07T08:53:41;29.50;99.90
2663;DHT22;49701;48.072;7.800;2023-09-07T08:56:14;29.70;99.90
2663;DHT22;49701;48.072;7.800;2023-09-07T08:58:40;29.90;99.90
2663;DHT22;49701;48.072;7.800;2023-09-07T09:01:05;30.10;99.90
2663;DHT22;49701;48.072;7.800;2023-09-07T09:03:31;29.90;99.90
2663;DHT22;49701;48.072;7.800;2023-09-07T09:05:56;29.50;99.90
2663;DHT22;49701;48.072;7.800;2023-09-07T09:08:22;29.30;99.90
2663;DHT22;49701;48.072;7.800;2023-09-07T09:10:58;29.30;99.90
2663;DHT22;49701;48.072;7.800;2023-09-07T09:13:27;29.50;99.90
2663;DHT22;49701;48.072;7.800;2023-09-07T09:15:53;29.60;99.90
2663;DHT22;49701;48.072;7.800;2023-09-07T09:18:18;29.70;99.90
2663;DHT22;49701;48.072;7.800;2023-09-07T09:20:44;29.80;99.90
2663;DHT22;49701;48.072;7.800;2023-09-07T09:23:10;30.20;99.90
2663;DHT22;49701;48.072;7.800;2023-09-07T09:25:39;30.60;99.90
2663;DHT22;49701;48.072;7.800;2023-09-07T09:28:05;30.70;99.90
2663;DHT22;49701;48.072;7.800;2023-09-07T09:30:31;30.70;99.90
2663;DHT22;49701;48.072;7.800;2023-09-07T09:32:56;30.50;99.90
2663;DHT22;49701;48.072;7.800;2023-09-07T09:35:22;30.30;99.90
2663;DHT22;49701;48.072;7.800;2023-09-07T09:37:48;30.50;99.90
2663;DHT22;49701;48.072;7.800;2023-09-07T09:40:15;30.80;99.90
2663;DHT22;49701;48.072;7.800;2023-09-07T09:42:42;31.10;99.90
2663;DHT22;49701;48.072;7.800;2023-09-07T09:45:09;31.60;99.90
2663;DHT22;49701;48.072;7.800;2023-09-07T09:47:36;31.90;99.90
2663;DHT22;49701;48.072;7.800;2023-09-07T09:50:04;32.00;99.90
2663;DHT22;49701;48.072;7.800;2023-09-07T09:52:31;32.20;99.90
2663;DHT22;49701;48.072;7.800;2023-09-07T09:54:59;32.50;99.90
2663;DHT22;49701;48.072;7.800;2023-09-07T09:57:25;32.90;99.30
2663;DHT22;49701;48.072;7.800;2023-09-07T09:59:53;33.20;98.40
2663;DHT22;49701;48.072;7.800;2023-09-07T10:02:19;33.30;98.30
2663;DHT22;49701;48.072;7.800;2023-09-07T10:04:44;33.40;97.90
2663;DHT22;49701;48.072;7.800;2023-09-07T10:07:10;33.60;97.40
2663;DHT22;49701;48.072;7.800;2023-09-07T10:09:37;33.80;97.00
2663;DHT22;49701;48.072;7.800;2023-09-07T10:12:03;34.00;96.50
2663;DHT22;49701;48.072;7.800;2023-09-07T10:14:40;34.10;96.00
2663;DHT22;49701;48.072;7.800;2023-09-07T10:17:06;34.40;95.40
2663;DHT22;49701;48.072;7.800;2023-09-07T10:19:31;34.50;94.80
2663;DHT22;49701;48.072;7.800;2023-09-07T10:21:57;34.50;94.90
2663;DHT22;49701;48.072;7.800;2023-09-07T10:24:43;34.50;94.90
2663;DHT22;49701;48.072;7.800;2023-09-07T10:27:11;34.50;94.50
2663;DHT22;49701;48.072;7.800;2023-09-07T10:29:45;34.80;93.80
2663;DHT22;49701;48.072;7.800;2023-09-07T10:32:10;34.90;93.50
2663;DHT22;49701;48.072;7.800;2023-09-07T10:34:38;35.00;93.20
2663;DHT22;49701;48.072;7.800;2023-09-07T10:37:05;35.00;92.90
2663;DHT22;49701;48.072;7.800;2023-09-07T10:39:32;34.70;93.30
2663;DHT22;49701;48.072;7.800;2023-09-07T10:41:58;34.70;93.30
2663;DHT22;49701;48.072;7.800;2023-09-07T10:44:26;34.90;92.80
2663;DHT22;49701;48.072;7.800;2023-09-07T10:46:52;35.00;92.40
2663;DHT22;49701;48.072;7.800;2023-09-07T10:49:17;35.20;92.20
2663;DHT22;49701;48.072;7.800;2023-09-07T10:51:44;35.60;91.70
2663;DHT22;49701;48.072;7.800;2023-09-07T10:54:14;36.00;91.20
2663;DHT22;49701;48.072;7.800;2023-09-07T10:56:42;36.50;90.70
2663;DHT22;49701;48.072;7.800;2023-09-07T10:59:08;36.80;89.80
2663;DHT22;49701;48.072;7.800;2023-09-07T11:01:33;36.90;88.30
2663;DHT22;49701;48.072;7.800;2023-09-07T11:03:59;37.00;87.60
2663;DHT22;49701;48.072;7.800;2023-09-07T11:06:24;37.30;86.90
2663;DHT22;49701;48.072;7.800;2023-09-07T11:08:50;37.60;85.80
2663;DHT22;49701;48.072;7.800;2023-09-07T11:11:16;37.90;83.90
2663;DHT22;49701;48.072;7.800;2023-09-07T11:13:42;37.80;84.20
2663;DHT22;49701;48.072;7.800;2023-09-07T11:16:08;38.00;84.00
2663;DHT22;49701;48.072;7.800;2023-09-07T11:18:34;38.20;82.80
2663;DHT22;49701;48.072;7.800;2023-09-07T11:21:03;38.20;81.70
2663;DHT22;49701;48.072;7.800;2023-09-07T11:23:30;38.10;81.70
2663;DHT22;49701;48.072;7.800;2023-09-07T11:26:03;38.10;80.40
2663;DHT22;49701;48.072;7.800;2023-09-07T11:28:29;38.20;78.80
2663;DHT22;49701;48.072;7.800;2023-09-07T11:30:55;38.00;78.10
2663;DHT22;49701;48.072;7.800;2023-09-07T11:33:21;38.10;79.00
2663;DHT22;49701;48.072;7.800;2023-09-07T11:35:47;38.30;78.30
2663;DHT22;49701;48.072;7.800;2023-09-07T11:38:15;38.50;77.50
2663;DHT22;49701;48.072;7.800;2023-09-07T11:40:41;38.80;76.40
2663;DHT22;49701;48.072;7.800;2023-09-07T11:43:10;38.90;75.80
2663;DHT22;49701;48.072;7.800;2023-09-07T11:45:36;39.00;74.20
2663;DHT22;49701;48.072;7.800;2023-09-07T11:48:01;38.90;74.70
2663;DHT22;49701;48.072;7.800;2023-09-07T11:50:27;39.00;74.80
2663;DHT22;49701;48.072;7.800;2023-09-07T11:52:55;39.30;73.80
2663;DHT22;49701;48.072;7.800;2023-09-07T11:55:21;39.60;72.60
2663;DHT22;49701;48.072;7.800;2023-09-07T11:57:47;39.70;72.20
2663;DHT22;49701;48.072;7.800;2023-09-07T12:00:12;39.70;72.30
2663;DHT22;49701;48.072;7.800;2023-09-07T12:02:40;39.80;71.60
2663;DHT22;49701;48.072;7.800;2023-09-07T12:05:06;40.00;71.00
2663;DHT22;49701;48.072;7.800;2023-09-07T12:07:35;39.90;70.50
2663;DHT22;49701;48.072;7.800;2023-09-07T12:10:01;40.00;70.40
2663;DHT22;49701;48.072;7.800;2023-09-07T12:12:27;40.10;70.10
2663;DHT22;49701;48.072;7.800;2023-09-07T12:14:53;39.70;70.00
2663;DHT22;49701;48.072;7.800;2023-09-07T12:17:18;39.60;70.40
2663;DHT22;49701;48.072;7.800;2023-09-07T12:19:45;39.70;70.10
2663;DHT22;49701;48.072;7.800;2023-09-07T12:22:11;39.80;69.70
2663;DHT22;49701;48.072;7.800;2023-09-07T12:24:37;39.70;69.40
2663;DHT22;49701;48.072;7.800;2023-09-07T12:27:02;39.80;68.70
2663;DHT22;49701;48.072;7.800;2023-09-07T12:29:28;39.70;68.50
2663;DHT22;49701;48.072;7.800;2023-09-07T12:31:53;39.70;67.90
2663;DHT22;49701;48.072;7.800;2023-09-07T12:34:19;39.80;67.20
2663;DHT22;49701;48.072;7.800;2023-09-07T12:36:44;39.70;66.50
2663;DHT22;49701;48.072;7.800;2023-09-07T12:39:10;39.60;67.30
2663;DHT22;49701;48.072;7.800;2023-09-07T12:41:38;39.50;68.00
2663;DHT22;49701;48.072;7.800;2023-09-07T12:44:04;39.50;68.10
2663;DHT22;49701;48.072;7.800;2023-09-07T12:46:30;39.80;67.70
2663;DHT22;49701;48.072;7.800;2023-09-07T12:48:56;39.90;67.40
2663;DHT22;49701;48.072;7.800;2023-09-07T12:51:21;40.00;66.90
2663;DHT22;49701;48.072;7.800;2023-09-07T12:53:47;40.00;67.30
2663;DHT22;49701;48.072;7.800;2023-09-07T12:56:12;39.90;66.30
2663;DHT22;49701;48.072;7.800;2023-09-07T12:58:38;39.60;67.00
2663;DHT22;49701;48.072;7.800;2023-09-07T13:01:04;39.60;67.00
2663;DHT22;49701;48.072;7.800;2023-09-07T13:03:30;39.80;66.70
2663;DHT22;49701;48.072;7.800;2023-09-07T13:05:55;39.90;66.40
2663;DHT22;49701;48.072;7.800;2023-09-07T13:08:21;40.00;66.20
2663;DHT22;49701;48.072;7.800;2023-09-07T13:10:46;40.10;65.60
2663;DHT22;49701;48.072;7.800;2023-09-07T13:13:12;40.00;65.40
2663;DHT22;49701;48.072;7.800;2023-09-07T13:15:37;40.10;65.30
2663;DHT22;49701;48.072;7.800;2023-09-07T13:18:03;40.10;65.00
2663;DHT22;49701;48.072;7.800;2023-09-07T13:20:29;40.20;64.30
2663;DHT22;49701;48.072;7.800;2023-09-07T13:22:55;40.30;63.80
2663;DHT22;49701;48.072;7.800;2023-09-07T13:25:20;40.30;63.50
2663;DHT22;49701;48.072;7.800;2023-09-07T13:27:46;40.30;63.60
2663;DHT22;49701;48.072;7.800;2023-09-07T13:30:11;40.50;63.80
2663;DHT22;49701;48.072;7.800;2023-09-07T13:32:37;40.50;62.60
2663;DHT22;49701;48.072;7.800;2023-09-07T13:35:03;40.50;62.50
2663;DHT22;49701;48.072;7.800;2023-09-07T13:37:29;40.60;62.50
2663;DHT22;49701;48.072;7.800;2023-09-07T13:39:55;40.60;62.50
2663;DHT22;49701;48.072;7.800;2023-09-07T13:42:20;40.40;63.10
2663;DHT22;49701;48.072;7.800;2023-09-07T13:44:46;40.30;63.10
2663;DHT22;49701;48.072;7.800;2023-09-07T13:47:12;40.30;63.10
2663;DHT22;49701;48.072;7.800;2023-09-07T13:49:38;40.30;63.20
2663;DHT22;49701;48.072;7.800;2023-09-07T13:52:04;40.00;63.50
2663;DHT22;49701;48.072;7.800;2023-09-07T13:54:29;39.90;63.50
2663;DHT22;49701;48.072;7.800;2023-09-07T13:56:55;40.00;63.20
2663;DHT22;49701;48.072;7.800;2023-09-07T13:59:21;40.00;63.10
2663;DHT22;49701;48.072;7.800;2023-09-07T14:01:46;40.00;62.50
2663;DHT22;49701;48.072;7.800;2023-09-07T14:04:12;40.20;62.10
2663;DHT22;49701;48.072;7.800;2023-09-07T14:06:37;40.30;61.60
2663;DHT22;49701;48.072;7.800;2023-09-07T14:09:03;40.30;61.60
2663;DHT22;49701;48.072;7.800;2023-09-07T14:11:29;40.30;62.20
2663;DHT22;49701;48.072;7.800;2023-09-07T14:13:56;40.40;62.20
2663;DHT22;49701;48.072;7.800;2023-09-07T14:16:21;40.50;61.90
2663;DHT22;49701;48.072;7.800;2023-09-07T14:18:48;40.50;61.20
2663;DHT22;49701;48.072;7.800;2023-09-07T14:21:16;40.30;60.10
2663;DHT22;49701;48.072;7.800;2023-09-07T14:23:42;40.20;60.10
2663;DHT22;49701;48.072;7.800;2023-09-07T14:26:08;40.00;59.90
2663;DHT22;49701;48.072;7.800;2023-09-07T14:28:34;39.90;59.00
2663;DHT22;49701;48.072;7.800;2023-09-07T14:31:00;39.60;59.50
2663;DHT22;49701;48.072;7.800;2023-09-07T14:33:28;39.50;59.40
2663;DHT22;49701;48.072;7.800;2023-09-07T14:35:54;39.40;59.20
2663;DHT22;49701;48.072;7.800;2023-09-07T14:38:20;39.30;59.50
2663;DHT22;49701;48.072;7.800;2023-09-07T14:40:46;39.20;60.10
2663;DHT22;49701;48.072;7.800;2023-09-07T14:43:14;39.20;60.50
2663;DHT22;49701;48.072;7.800;2023-09-07T14:45:39;39.30;60.40
2663;DHT22;49701;48.072;7.800;2023-09-07T14:48:05;39.30;60.60
2663;DHT22;49701;48.072;7.800;2023-09-07T14:50:30;39.20;60.90
2663;DHT22;49701;48.072;7.800;2023-09-07T14:52:56;39.20;61.10
2663;DHT22;49701;48.072;7.800;2023-09-07T14:55:21;39.30;61.30
2663;DHT22;49701;48.072;7.800;2023-09-07T14:57:47;39.20;61.70
2663;DHT22;49701;48.072;7.800;2023-09-07T15:00:12;39.10;62.00
2663;DHT22;49701;48.072;7.800;2023-09-07T15:02:38;39.00;62.20
2663;DHT22;49701;48.072;7.800;2023-09-07T15:05:04;38.90;62.30
2663;DHT22;49701;48.072;7.800;2023-09-07T15:07:29;38.80;62.60
2663;DHT22;49701;48.072;7.800;2023-09-07T15:09:55;38.70;63.70
2663;DHT22;49701;48.072;7.800;2023-09-07T15:12:20;38.40;63.40
2663;DHT22;49701;48.072;7.800;2023-09-07T15:14:46;38.30;63.70
2663;DHT22;49701;48.072;7.800;2023-09-07T15:17:12;38.20;64.20
2663;DHT22;49701;48.072;7.800;2023-09-07T15:19:39;38.10;64.30
2663;DHT22;49701;48.072;7.800;2023-09-07T15:22:05;38.00;64.50
2663;DHT22;49701;48.072;7.800;2023-09-07T15:24:30;38.00;64.50
2663;DHT22;49701;48.072;7.800;2023-09-07T15:26:56;38.00;64.50
2663;DHT22;49701;48.072;7.800;2023-09-07T15:29:21;38.00;64.40
2663;DHT22;49701;48.072;7.800;2023-09-07T15:31:47;38.00;64.50
2663;DHT22;49701;48.072;7.800;2023-09-07T15:34:13;37.90;64.70
2663;DHT22;49701;48.072;7.800;2023-09-07T15:36:40;37.70;64.90
2663;DHT22;49701;48.072;7.800;2023-09-07T15:39:07;37.60;65.10